createdAt,value
2019-01-27T00:00:14.259Z,1218.00
2019-01-27T00:02:42.942Z,1179.18
2019-01-27T00:07:39.737Z,1382.98
2019-01-27T00:10:09.076Z,1485.05
2019-01-27T00:12:37.854Z,1451.70
2019-01-27T00:17:34.943Z,1529.30
2019-01-27T00:22:31.864Z,1460.43
2019-01-27T00:27:28.687Z,1374.27
2019-01-27T00:29:57.380Z,1370.30
2019-01-27T00:32:26.114Z,1336.90
2019-01-27T00:37:22.974Z,1410.80
2019-01-27T00:42:19.884Z,1514.68
2019-01-27T00:44:48.611Z,1501.17
2019-01-27T00:49:45.451Z,1759.20
2019-01-27T00:52:14.244Z,1525.83
2019-01-27T00:57:10.978Z,1466.13
2019-01-27T00:59:39.626Z,1422.17
2019-01-27T01:02:08.395Z,1412.68
2019-01-27T01:07:05.019Z,1362.60
2019-01-27T01:09:34.308Z,1392.85
2019-01-27T01:12:03.033Z,1406.17
2019-01-27T01:16:59.666Z,1391.63
2019-01-27T01:21:56.074Z,1388.20
2019-01-27T01:24:24.742Z,1369.53
2019-01-27T01:29:21.411Z,1378.45
2019-01-27T01:34:17.898Z,1370.10
2019-01-27T01:39:14.371Z,1363.27
2019-01-27T01:41:43.057Z,1351.70
2019-01-27T01:46:39.625Z,1344.93
2019-01-27T01:51:36.127Z,1333.53
2019-01-27T01:54:04.870Z,1317.20
2019-01-27T01:59:01.402Z,1294.17
2019-01-27T02:03:58.198Z,1289.93
2019-01-27T02:06:26.862Z,1288.98
2019-01-27T02:08:55.502Z,1258.87
2019-01-27T02:11:24.147Z,1260.75
2019-01-27T02:16:20.774Z,1227.87
2019-01-27T02:21:17.410Z,1261.33
2019-01-27T02:23:46.078Z,1240.95
2019-01-27T02:26:14.708Z,1258.50
2019-01-27T02:31:11.218Z,1240.78
2019-01-27T02:33:40.143Z,1233.68
2019-01-27T02:36:08.814Z,1237.33
2019-01-27T02:38:37.687Z,1210.30
2019-01-27T02:41:06.375Z,1214.10
2019-01-27T02:43:35.016Z,1213.85
2019-01-27T02:46:03.950Z,1203.35
2019-01-27T02:48:32.897Z,1214.00
2019-01-27T02:51:01.593Z,1201.88
2019-01-27T02:53:30.277Z,1200.28
2019-01-27T02:55:58.980Z,1187.20
2019-01-27T02:58:27.662Z,1173.03
2019-01-27T03:00:56.329Z,1190.18
2019-01-27T03:03:25.017Z,1132.35
2019-01-27T03:06:11.197Z,1159.40
2019-01-27T03:08:45.790Z,1176.97
2019-01-27T03:11:14.464Z,1162.38
2019-01-27T03:13:43.095Z,1113.38
2019-01-27T03:16:12.678Z,1162.78
2019-01-27T03:18:41.343Z,1141.72
2019-01-27T03:21:10.085Z,1144.80
2019-01-27T03:26:06.747Z,1142.47
2019-01-27T03:31:03.522Z,1133.03
2019-01-27T03:33:32.273Z,1129.03
2019-01-27T03:38:28.933Z,1086.53
2019-01-27T03:40:57.581Z,1089.03
2019-01-27T03:43:26.489Z,1089.90
2019-01-27T03:45:55.201Z,1106.55
2019-01-27T03:50:52.002Z,1099.97
2019-01-27T03:53:20.721Z,1086.45
2019-01-27T03:55:49.469Z,1094.95
2019-01-27T04:00:46.097Z,1083.00
2019-01-27T04:05:42.829Z,1061.43
2019-01-27T04:08:11.554Z,1012.00
2019-01-27T04:13:08.088Z,1005.15
2019-01-27T04:18:04.714Z,1040.50
2019-01-27T04:23:01.126Z,997.93
2019-01-27T04:25:29.852Z,889.78
2019-01-27T04:30:32.164Z,983.38
2019-01-27T04:33:00.882Z,950.55
2019-01-27T04:35:29.556Z,945.05
2019-01-27T04:37:58.242Z,915.98
2019-01-27T04:40:27.035Z,918.45
2019-01-27T04:45:27.379Z,906.47
2019-01-27T04:47:56.255Z,975.68
2019-01-27T04:50:24.929Z,985.00
2019-01-27T04:52:53.579Z,979.00
2019-01-27T04:55:22.257Z,984.40
2019-01-27T05:00:20.841Z,970.60
2019-01-27T05:03:03.737Z,960.43
2019-01-27T05:05:32.441Z,959.50
2019-01-27T05:08:01.563Z,943.62
2019-01-27T05:10:30.799Z,944.48
2019-01-27T05:12:59.459Z,953.85
2019-01-27T05:15:29.212Z,940.27
2019-01-27T05:17:57.895Z,924.47
2019-01-27T05:20:26.662Z,897.02
2019-01-27T05:25:23.307Z,773.97
2019-01-27T05:30:20.364Z,690.20
2019-01-27T05:32:49.645Z,606.37
2019-01-27T05:35:18.336Z,614.73
2019-01-27T05:37:46.997Z,591.48
2019-01-27T05:40:15.696Z,571.65
2019-01-27T05:45:13.754Z,530.73
2019-01-27T05:47:42.629Z,484.20
2019-01-27T05:52:41.196Z,412.02
2019-01-27T05:57:38.195Z,409.22
2019-01-27T06:02:36.807Z,360.10
2019-01-27T06:05:06.004Z,385.15
2019-01-27T06:07:34.722Z,385.95
2019-01-27T06:10:03.653Z,382.27
2019-01-27T06:12:32.529Z,385.73
2019-01-27T06:15:01.188Z,398.65
2019-01-27T06:17:29.928Z,399.25
2019-01-27T06:22:26.632Z,399.25
2019-01-27T06:27:23.076Z,391.30
2019-01-27T06:29:52.012Z,390.65
2019-01-27T06:32:38.725Z,396.60
2019-01-27T06:35:07.917Z,401.02
2019-01-27T06:37:36.562Z,349.80
2019-01-27T06:40:05.425Z,334.60
2019-01-27T06:42:34.125Z,338.80
2019-01-27T06:45:02.856Z,341.90
2019-01-27T06:49:59.957Z,317.33
2019-01-27T06:52:28.637Z,316.95
2019-01-27T06:54:57.296Z,314.63
2019-01-27T06:57:25.917Z,309.98
2019-01-27T06:59:59.056Z,311.00
2019-01-27T07:02:42.070Z,302.40
2019-01-27T07:05:23.861Z,301.80
2019-01-27T07:08:04.484Z,301.00
2019-01-27T07:10:50.829Z,304.70
2019-01-27T07:13:30.952Z,301.20
2019-01-27T07:16:21.875Z,300.73
2019-01-27T07:19:09.641Z,296.10
2019-01-27T07:22:00.655Z,287.45
2019-01-27T07:24:35.518Z,286.15
2019-01-27T07:27:35.386Z,289.27
2019-01-27T07:30:39.153Z,287.50
2019-01-27T07:33:32.946Z,273.45
2019-01-27T07:36:27.048Z,275.90
2019-01-27T07:39:06.962Z,262.88
2019-01-27T07:41:59.145Z,268.73
2019-01-27T07:44:33.851Z,272.35
2019-01-27T07:47:08.158Z,275.32
2019-01-27T07:49:47.024Z,267.52
2019-01-27T07:52:46.852Z,250.07
2019-01-27T07:55:33.575Z,443.13
2019-01-27T07:58:11.748Z,530.77
2019-01-27T08:00:58.680Z,645.98
2019-01-27T08:03:36.300Z,608.05
2019-01-27T08:06:27.213Z,596.55
2019-01-27T08:09:08.643Z,588.75
2019-01-27T08:11:50.921Z,704.00
2019-01-27T08:14:35.914Z,683.92
2019-01-27T08:17:22.524Z,699.27
2019-01-27T08:20:13.321Z,653.20
2019-01-27T08:23:00.007Z,569.95
2019-01-27T08:25:46.107Z,511.80
2019-01-27T08:28:31.577Z,451.27
2019-01-27T08:31:09.816Z,431.35
2019-01-27T08:34:06.629Z,417.87
2019-01-27T08:36:49.101Z,389.87
2019-01-27T08:39:28.750Z,390.82
2019-01-27T08:42:07.564Z,393.48
2019-01-27T08:44:52.170Z,374.02
2019-01-27T08:47:21.339Z,540.28
2019-01-27T08:49:50.245Z,582.73
2019-01-27T08:52:19.062Z,657.15
2019-01-27T08:59:44.423Z,689.63
2019-01-27T09:02:38.364Z,675.40
2019-01-27T09:05:45.373Z,668.87
2019-01-27T09:08:28.229Z,668.63
2019-01-27T09:11:30.842Z,689.05
2019-01-27T09:14:08.979Z,599.10
2019-01-27T09:16:48.785Z,567.35
2019-01-27T09:19:30.292Z,577.58
2019-01-27T09:22:24.361Z,537.35
2019-01-27T09:25:09.492Z,425.50
2019-01-27T09:27:55.752Z,466.08
2019-01-27T09:30:39.375Z,454.20
2019-01-27T09:33:25.911Z,443.15
2019-01-27T09:36:22.344Z,437.92
2019-01-27T09:39:13.216Z,442.98
2019-01-27T09:42:06.764Z,425.42
2019-01-27T09:44:43.630Z,437.80
2019-01-27T09:47:24.232Z,440.62
2019-01-27T09:50:15.219Z,426.67
2019-01-27T09:53:02.901Z,430.40
2019-01-27T09:56:05.872Z,419.17
2019-01-27T09:58:53.627Z,414.45
2019-01-27T10:01:29.467Z,419.67
2019-01-27T10:04:09.212Z,410.20
2019-01-27T10:06:59.441Z,402.58
2019-01-27T10:09:45.598Z,382.37
2019-01-27T10:12:36.375Z,392.90
2019-01-27T10:15:25.386Z,388.62
2019-01-27T10:18:11.738Z,379.27
2019-01-27T10:20:51.059Z,366.68
2019-01-27T10:23:41.979Z,646.22
2019-01-27T10:26:17.732Z,747.48
2019-01-27T10:29:12.345Z,756.27
2019-01-27T10:31:58.853Z,675.02
2019-01-27T10:34:45.324Z,667.53
2019-01-27T10:37:31.859Z,650.05
2019-01-27T10:40:25.650Z,647.67
2019-01-27T10:43:26.168Z,635.97
2019-01-27T10:46:15.354Z,637.88
2019-01-27T10:49:22.065Z,623.42
2019-01-27T10:52:09.716Z,626.75
2019-01-27T10:54:47.318Z,631.33
2019-01-27T10:57:44.129Z,625.48
2019-01-27T11:00:34.008Z,514.35
2019-01-27T11:03:09.399Z,464.45
2019-01-27T11:06:09.365Z,435.20
2019-01-27T11:09:09.398Z,429.42
2019-01-27T11:11:47.661Z,410.15
2019-01-27T11:14:54.375Z,433.65
2019-01-27T11:17:57.342Z,399.83
2019-01-27T11:20:43.654Z,384.20
2019-01-27T11:23:42.941Z,382.95
2019-01-27T11:26:21.967Z,380.75
2019-01-27T11:29:18.982Z,378.05
2019-01-27T11:32:02.043Z,369.80
2019-01-27T11:34:52.308Z,370.82
2019-01-27T11:37:54.984Z,364.35
2019-01-27T11:40:35.886Z,359.55
2019-01-27T11:43:22.075Z,353.32
2019-01-27T11:46:07.595Z,357.35
2019-01-27T11:49:01.374Z,358.25
2019-01-27T11:51:35.571Z,357.87
2019-01-27T11:54:04.363Z,356.30
2019-01-27T11:59:01.056Z,349.93
2019-01-27T12:03:58.046Z,341.70
2019-01-27T12:06:26.866Z,341.88
2019-01-27T12:15:15.704Z,337.20
2019-01-27T12:17:44.774Z,330.87
2019-01-27T12:20:13.678Z,330.10
2019-01-27T12:22:42.802Z,326.90
2019-01-27T12:25:12.446Z,327.52
2019-01-27T12:27:41.214Z,323.93
2019-01-27T12:32:41.126Z,323.48
2019-01-27T12:35:10.037Z,320.02
2019-01-27T12:37:39.293Z,310.82
2019-01-27T12:40:13.638Z,305.35
2019-01-27T12:42:43.520Z,304.80
2019-01-27T12:45:15.721Z,310.35
2019-01-27T12:47:44.643Z,279.43
2019-01-27T12:50:15.192Z,272.73
2019-01-27T12:52:45.920Z,267.52
2019-01-27T12:55:14.906Z,257.25
2019-01-27T12:57:43.580Z,252.40
2019-01-27T13:00:24.648Z,245.20
2019-01-27T13:02:54.763Z,240.12
2019-01-27T13:05:23.438Z,237.75
2019-01-27T13:07:52.184Z,236.35
2019-01-27T13:12:49.245Z,233.82
2019-01-27T13:15:18.268Z,233.93
2019-01-27T13:17:47.112Z,230.95
2019-01-27T13:22:44.161Z,229.10
2019-01-27T13:25:14.500Z,233.63
2019-01-27T13:27:43.468Z,460.52
2019-01-27T13:30:15.188Z,796.27
2019-01-27T13:32:44.053Z,715.12
2019-01-27T13:35:13.701Z,659.45
2019-01-27T13:37:42.996Z,895.35
2019-01-27T13:40:14.855Z,754.65
2019-01-27T13:42:43.807Z,741.38
2019-01-27T13:45:15.584Z,767.75
2019-01-27T13:47:45.156Z,932.50
2019-01-27T13:50:14.087Z,832.70
2019-01-27T13:52:43.519Z,840.40
2019-01-27T13:55:15.403Z,819.28
2019-01-27T13:57:44.218Z,823.72
2019-01-27T14:00:16.626Z,764.52
2019-01-27T14:02:45.561Z,774.48
2019-01-27T14:05:14.347Z,743.50
2019-01-27T14:10:14.123Z,682.20
2019-01-27T14:12:42.999Z,707.55
2019-01-27T14:15:14.553Z,717.75
2019-01-27T14:17:43.488Z,702.50
2019-01-27T14:20:14.156Z,702.85
2019-01-27T14:22:43.157Z,697.73
2019-01-27T14:25:13.844Z,690.05
2019-01-27T14:27:42.795Z,682.85
2019-01-27T14:30:14.383Z,773.47
2019-01-27T14:32:43.420Z,943.30
2019-01-27T14:35:13.110Z,1175.90
2019-01-27T14:38:01.426Z,1110.65
2019-01-27T14:40:30.153Z,1166.75
2019-01-27T14:42:58.863Z,1295.88
2019-01-27T14:47:56.526Z,1276.90
2019-01-27T14:50:28.017Z,1290.70
2019-01-27T14:52:57.210Z,1278.25
2019-01-27T14:55:26.477Z,1276.55
2019-01-27T14:57:55.229Z,1269.78
2019-01-27T15:02:53.375Z,1239.88
2019-01-27T15:07:50.118Z,1142.97
2019-01-27T15:10:19.589Z,1153.65
2019-01-27T15:12:48.291Z,1130.35
2019-01-27T15:20:19.676Z,1109.43
2019-01-27T15:22:48.350Z,1096.18
2019-01-27T15:25:17.007Z,1106.55
2019-01-27T15:30:20.908Z,1093.70
2019-01-27T15:32:49.604Z,1025.30
2019-01-27T15:37:46.218Z,1066.20
2019-01-27T15:40:15.212Z,1057.75
2019-01-27T15:42:43.997Z,1056.00
2019-01-27T15:45:15.464Z,1036.03
2019-01-27T15:47:45.429Z,873.87
2019-01-27T15:50:17.674Z,912.08
2019-01-27T15:52:46.573Z,890.38
2019-01-27T15:55:17.971Z,882.17
2019-01-27T15:57:48.116Z,871.12
2019-01-27T16:00:22.620Z,930.05
2019-01-27T16:03:03.771Z,1072.83
2019-01-27T16:05:32.597Z,1175.03
2019-01-27T16:08:01.296Z,1073.30
2019-01-27T16:10:30.669Z,1194.25
2019-01-27T16:12:59.590Z,1174.60
2019-01-27T16:16:24.035Z,1094.90
2019-01-27T16:18:24.698Z,1070.23
2019-01-27T16:20:53.550Z,990.12
2019-01-27T16:23:39.875Z,974.75
2019-01-27T16:26:08.629Z,845.70
2019-01-27T16:31:23.020Z,784.65
2019-01-27T16:33:56.288Z,718.13
2019-01-27T16:36:28.171Z,698.67
2019-01-27T16:38:57.101Z,697.77
2019-01-27T16:41:26.512Z,644.13
2019-01-27T16:43:55.725Z,607.35
2019-01-27T16:46:28.264Z,596.12
2019-01-27T16:48:57.057Z,587.08
2019-01-27T16:53:53.616Z,569.97
2019-01-27T16:56:22.521Z,550.40
2019-01-27T16:58:51.221Z,504.05
2019-01-27T17:03:48.197Z,523.78
2019-01-27T17:06:17.305Z,554.98
2019-01-27T17:08:46.125Z,526.00
2019-01-27T17:11:14.851Z,498.73
2019-01-27T17:16:12.386Z,478.47
2019-01-27T17:18:44.614Z,535.37
2019-01-27T17:21:13.490Z,522.45
2019-01-27T17:23:42.235Z,728.62
2019-01-27T17:28:43.172Z,736.85
2019-01-27T17:31:13.537Z,714.10
2019-01-27T17:33:43.192Z,710.87
2019-01-27T17:36:12.155Z,719.67
2019-01-27T17:38:40.981Z,706.23
2019-01-27T17:41:10.208Z,693.75
2019-01-27T17:43:39.018Z,693.13
2019-01-27T17:48:36.263Z,667.95
2019-01-27T17:51:05.129Z,671.08
2019-01-27T17:53:43.346Z,655.92
2019-01-27T17:56:12.047Z,654.85
2019-01-27T18:01:58.969Z,636.70
2019-01-27T18:04:47.501Z,632.02
2019-01-27T18:07:29.960Z,609.42
2019-01-27T18:10:26.505Z,653.55
2019-01-27T18:13:13.286Z,874.42
2019-01-27T18:15:43.027Z,784.35
2019-01-27T18:18:11.825Z,787.60
2019-01-27T18:23:11.327Z,671.63
2019-01-27T18:25:40.017Z,634.70
2019-01-27T18:28:08.874Z,633.02
2019-01-27T18:30:37.920Z,604.10
2019-01-27T18:33:07.100Z,627.97
2019-01-27T18:35:35.991Z,932.23
2019-01-27T18:38:05.775Z,851.85
2019-01-27T18:40:34.872Z,940.92
2019-01-27T18:43:03.546Z,871.75
2019-01-27T18:48:00.322Z,726.30
2019-01-27T18:50:29.125Z,737.92
2019-01-27T18:53:15.644Z,707.90
2019-01-27T18:56:00.301Z,664.55
2019-01-27T18:58:36.915Z,640.20
2019-01-27T19:01:24.249Z,636.77
2019-01-27T19:04:05.739Z,633.02
2019-01-27T19:06:56.873Z,625.55
2019-01-27T19:09:41.619Z,578.90
2019-01-27T19:12:22.670Z,858.58
2019-01-27T19:15:15.294Z,893.40
2019-01-27T19:18:03.075Z,823.27
2019-01-27T19:20:51.979Z,751.00
2019-01-27T19:23:45.285Z,708.25
2019-01-27T19:26:20.472Z,698.97
2019-01-27T19:29:08.377Z,694.23
2019-01-27T19:31:57.588Z,677.05
2019-01-27T19:34:45.326Z,630.37
2019-01-27T19:37:27.486Z,643.03
2019-01-27T19:40:19.148Z,610.73
2019-01-27T19:43:06.899Z,607.65
2019-01-27T19:45:54.601Z,589.10
2019-01-27T19:48:45.401Z,596.33
2019-01-27T19:51:48.874Z,596.65
2019-01-27T19:54:45.647Z,585.30
2019-01-27T19:57:45.177Z,572.15
2019-01-27T20:00:25.998Z,559.77
2019-01-27T20:03:26.125Z,559.77
2019-01-27T20:06:08.663Z,557.23
2019-01-27T20:08:59.456Z,553.92
2019-01-27T20:11:53.367Z,548.35
2019-01-27T20:14:47.432Z,543.33
2019-01-27T20:17:33.665Z,534.22
2019-01-27T20:20:22.358Z,536.50
2019-01-27T20:23:11.661Z,532.25
2019-01-27T20:25:53.122Z,518.50
2019-01-27T20:28:41.148Z,526.13
2019-01-27T20:31:27.260Z,516.17
2019-01-27T20:34:13.775Z,512.77
2019-01-27T20:37:01.549Z,508.75
2019-01-27T20:39:48.105Z,509.03
2019-01-27T20:42:36.452Z,499.12
2019-01-27T20:45:28.526Z,530.27
2019-01-27T20:48:34.473Z,578.83
2019-01-27T20:51:14.180Z,578.20
2019-01-27T20:54:05.009Z,554.17
2019-01-27T20:56:52.707Z,609.70
2019-01-27T20:59:40.678Z,905.03
2019-01-27T21:02:27.641Z,787.12
2019-01-27T21:05:09.916Z,775.48
2019-01-27T21:07:46.960Z,914.67
2019-01-27T21:10:33.428Z,884.62
2019-01-27T21:13:36.987Z,878.25
2019-01-27T21:16:24.759Z,854.95
2019-01-27T21:19:24.993Z,636.40
2019-01-27T21:21:53.703Z,669.55
2019-01-27T21:26:50.282Z,689.67
2019-01-27T21:31:47.168Z,647.53
2019-01-27T21:34:15.884Z,637.33
2019-01-27T21:39:12.664Z,618.20
2019-01-27T21:41:41.580Z,599.88
2019-01-27T21:44:10.346Z,614.50
2019-01-27T21:46:39.177Z,595.85
2019-01-27T21:49:08.133Z,603.35
2019-01-27T21:51:36.860Z,575.55
2019-01-27T21:54:05.610Z,584.65
2019-01-27T21:56:34.615Z,581.45
2019-01-27T21:59:03.306Z,564.87
2019-01-27T22:01:32.028Z,573.62
2019-01-27T22:04:01.049Z,568.95
2019-01-27T22:06:29.785Z,569.90
2019-01-27T22:08:58.485Z,740.75
2019-01-27T22:11:27.259Z,766.25
2019-01-27T22:13:56.041Z,790.10
2019-01-27T22:16:24.761Z,777.37
2019-01-27T22:18:53.746Z,760.90
2019-01-27T22:21:22.466Z,754.62
2019-01-27T22:23:51.190Z,746.65
2019-01-27T22:26:19.949Z,1105.45
2019-01-27T22:28:48.655Z,1271.95
2019-01-27T22:31:17.586Z,931.17
2019-01-27T22:33:46.303Z,894.85
2019-01-27T22:36:15.021Z,862.52
2019-01-27T22:38:43.767Z,845.95
2019-01-27T22:41:12.473Z,822.33
2019-01-27T22:43:41.183Z,804.10
2019-01-27T22:46:09.884Z,802.60
2019-01-27T22:48:38.971Z,790.33
2019-01-27T22:51:07.704Z,798.80
2019-01-27T22:53:36.420Z,780.67
2019-01-27T22:56:05.200Z,773.15
2019-01-27T22:58:34.068Z,774.92
2019-01-27T23:01:08.927Z,760.95
2019-01-27T23:03:39.668Z,757.08
2019-01-27T23:06:08.354Z,745.57
2019-01-27T23:11:05.196Z,722.73
2019-01-27T23:13:34.105Z,680.37
2019-01-27T23:16:02.806Z,680.22
2019-01-27T23:20:59.388Z,656.20
2019-01-27T23:23:31.212Z,664.08
2019-01-27T23:25:59.911Z,655.50
2019-01-27T23:28:28.611Z,654.75
2019-01-27T23:33:25.134Z,642.13
2019-01-27T23:38:22.036Z,643.05
2019-01-27T23:43:18.573Z,635.58
2019-01-27T23:45:47.264Z,627.92
2019-01-27T23:50:44.081Z,625.43
2019-01-27T23:53:12.958Z,611.52
2019-01-27T23:55:41.659Z,606.25
2019-01-27T23:58:10.350Z,622.60
